Terminal Aerodrome Forecast
Issued by NWS Upton, NY

Home | Current Version | Previous Version | Text Only | Print | Product List | Glossary On
Versions: 1 2 3 4 5 6 7 8 9 10 11 12 13 14 15 16 17 18 19 20 21 22 23 24 25 26
062
FTUS41 KOKX 100526
TAFEWR
TAF
KEWR 100526Z 1006/1112 VRB03KT 6SM -SN BKN020 OVC035
      TEMPO 1006/1010 1 1/2SM -SN BKN006 OVC015
     FM101300 28011KT P6SM FEW025 BKN035
     FM101600 27016G23KT P6SM BKN040
     FM110400 28011G18KT P6SM BKN040=

USA.gov is the U.S. government's official web portal to all federal, state and local government web resources and services.